Time;durP1;ratioP1;P1;durP2;ratioP2;P2;SDS_P1;SDS_P2;PMS_P1;PMS_P2;Temp;Humidity;BMP_temperature;BMP_pressure;BME280_temperature;BME280_humidity;BME280_pressure;Samples;Min_cycle;Max_cycle;Signal;HPM_P1;HPM_P2
2023/09/28 00:00:38;;;;;;;6.37;5.87;;;21.60;95.10;;;;;;4942078;28;20642;-72
2023/09/28 00:03:05;;;;;;;6.00;5.60;;;21.60;95.10;;;;;;4936609;28;20532;-72
2023/09/28 00:05:34;;;;;;;6.03;5.50;;;21.60;95.10;;;;;;4911763;28;20468;-72
2023/09/28 00:08:01;;;;;;;6.00;5.50;;;21.60;95.10;;;;;;4942099;28;20466;-72
2023/09/28 00:10:28;;;;;;;6.50;5.90;;;21.60;95.10;;;;;;4961027;28;20475;-71
2023/09/28 00:12:55;;;;;;;5.80;5.30;;;21.60;95.10;;;;;;4936745;28;20481;-72
2023/09/28 00:15:26;;;;;;;5.57;5.10;;;21.60;95.10;;;;;;4954122;28;20634;-71
2023/09/28 00:17:55;;;;;;;6.47;5.73;;;21.60;95.10;;;;;;4951206;28;20430;-71
2023/09/28 00:20:27;;;;;;;5.50;5.10;;;21.60;95.20;;;;;;4937115;28;20454;-72
2023/09/28 00:22:56;;;;;;;5.43;5.03;;;21.60;95.10;;;;;;4960709;28;20819;-72
2023/09/28 00:25:23;;;;;;;5.50;5.10;;;21.60;95.20;;;;;;4951247;28;20772;-71
2023/09/28 00:27:53;;;;;;;5.17;4.77;;;21.60;95.20;;;;;;4948782;28;20445;-71
2023/09/28 00:30:22;;;;;;;5.20;4.80;;;21.60;95.20;;;;;;4951641;28;20477;-72
2023/09/28 00:32:53;;;;;;;5.70;5.30;;;21.60;95.10;;;;;;4956626;28;20474;-71
2023/09/28 00:35:22;;;;;;;5.40;5.00;;;21.60;95.20;;;;;;4956330;28;20517;-72
2023/09/28 00:37:51;;;;;;;5.30;4.80;;;21.50;95.10;;;;;;4956213;28;21332;-72
2023/09/28 00:42:47;;;;;;;5.90;5.30;;;21.50;95.10;;;;;;4947976;28;20769;-72
2023/09/28 00:45:13;;;;;;;5.80;5.30;;;21.60;95.20;;;;;;4956668;28;20499;-72
2023/09/28 00:47:41;;;;;;;6.20;5.60;;;21.60;95.20;;;;;;4956305;28;20457;-71
2023/09/28 00:50:10;;;;;;;5.60;5.17;;;21.50;95.10;;;;;;4948639;28;21150;-72
2023/09/28 00:52:42;;;;;;;5.70;5.20;;;21.60;95.20;;;;;;4948873;28;20488;-71
2023/09/28 00:55:09;;;;;;;6.10;5.60;;;21.50;95.10;;;;;;4946605;28;20425;-71
2023/09/28 00:57:41;;;;;;;5.67;5.27;;;21.50;95.00;;;;;;4966478;28;20433;-72
2023/09/28 01:03:07;;;;;;;5.73;5.27;;;21.50;95.00;;;;;;4964968;28;20511;-72
2023/09/28 01:05:40;;;;;;;5.73;5.23;;;21.50;95.10;;;;;;4940751;28;20433;-71
2023/09/28 01:08:19;;;;;;;5.80;5.30;;;21.50;95.10;;;;;;4929731;29;20826;-72
2023/09/28 01:10:46;;;;;;;6.67;5.57;;;21.50;95.00;;;;;;4929522;29;20521;-72
2023/09/28 01:13:20;;;;;;;6.13;5.63;;;21.50;95.00;;;;;;4961391;28;20477;-71
2023/09/28 01:15:49;;;;;;;5.90;5.50;;;21.40;94.90;;;;;;4951954;28;20455;-71
2023/09/28 01:18:22;;;;;;;6.60;6.10;;;21.50;95.00;;;;;;4951815;28;20432;-71
2023/09/28 01:20:51;;;;;;;6.30;5.70;;;21.40;94.90;;;;;;4953214;28;20417;-71
2023/09/28 01:23:20;;;;;;;6.07;5.57;;;21.40;94.90;;;;;;4935349;28;20896;-72
2023/09/28 01:25:49;;;;;;;5.90;5.40;;;21.50;95.00;;;;;;4968332;23;20508;-71
2023/09/28 01:28:18;;;;;;;5.47;4.93;;;21.50;95.00;;;;;;4966789;28;20528;-71
2023/09/28 01:30:46;;;;;;;6.20;5.70;;;21.40;95.00;;;;;;4964947;28;20496;-71
2023/09/28 01:33:16;;;;;;;5.70;5.30;;;21.50;94.90;;;;;;4945937;29;20467;-71
2023/09/28 01:35:43;;;;;;;6.30;5.80;;;21.50;95.00;;;;;;4962527;28;20430;-72
2023/09/28 01:38:38;;;;;;;6.27;5.63;;;21.40;94.90;;;;;;4960689;28;20454;-71
2023/09/28 01:41:04;;;;;;;5.37;4.93;;;21.50;94.90;;;;;;4962244;28;20425;-71
2023/09/28 01:43:33;;;;;;;6.10;5.60;;;21.50;94.90;;;;;;4945137;29;20493;-71
2023/09/28 01:45:59;;;;;;;6.30;5.70;;;21.40;94.90;;;;;;4946806;28;20427;-70
2023/09/28 01:48:25;;;;;;;4.60;4.30;;;21.40;94.90;;;;;;4961233;28;20434;-71
2023/09/28 01:50:54;;;;;;;5.90;5.50;;;21.40;94.90;;;;;;4961595;28;20222;-71
2023/09/28 01:53:29;;;;;;;5.53;5.13;;;21.40;94.90;;;;;;4961063;28;20469;-70
2023/09/28 01:55:59;;;;;;;6.00;5.40;;;21.40;94.90;;;;;;4929349;29;21030;-71
2023/09/28 01:58:26;;;;;;;5.57;5.07;;;21.40;94.90;;;;;;4952352;28;20530;-70
2023/09/28 02:00:54;;;;;;;5.40;5.00;;;21.40;94.90;;;;;;4925540;29;20414;-71
2023/09/28 02:03:21;;;;;;;5.13;4.73;;;21.40;94.90;;;;;;4926904;29;20822;-70
2023/09/28 02:05:52;;;;;;;5.83;5.40;;;21.30;94.90;;;;;;4909908;29;20445;-71
2023/09/28 02:08:19;;;;;;;5.40;5.00;;;21.40;95.00;;;;;;4927456;29;20804;-71
2023/09/28 02:10:45;;;;;;;5.80;5.37;;;21.40;94.90;;;;;;4926098;29;20448;-71
2023/09/28 02:13:12;;;;;;;5.60;5.10;;;21.30;94.80;;;;;;4910748;29;21168;-71
2023/09/28 02:15:44;;;;;;;5.80;5.30;;;21.40;94.90;;;;;;4925642;29;20427;-71
2023/09/28 02:18:10;;;;;;;5.20;4.70;;;21.30;94.90;;;;;;4941498;29;20423;-71
2023/09/28 02:20:39;;;;;;;5.53;5.07;;;21.40;94.90;;;;;;4942183;28;20508;-71
2023/09/28 02:23:09;;;;;;;5.43;5.03;;;21.30;94.90;;;;;;4925127;29;20539;-70
2023/09/28 02:25:40;;;;;;;5.27;4.87;;;21.40;94.90;;;;;;4925634;29;20458;-71
2023/09/28 02:28:07;;;;;;;5.63;5.13;;;21.40;94.90;;;;;;4910149;29;20803;-71
2023/09/28 02:30:37;;;;;;;6.10;5.60;;;21.40;94.90;;;;;;4941930;29;20427;-71
2023/09/28 02:33:06;;;;;;;5.50;5.10;;;21.30;94.90;;;;;;4926075;29;20467;-71
2023/09/28 02:35:39;;;;;;;5.97;5.47;;;21.30;94.90;;;;;;4910156;29;20467;-71
2023/09/28 02:38:07;;;;;;;5.90;5.40;;;21.30;94.90;;;;;;4942008;29;20533;-71
2023/09/28 02:40:33;;;;;;;5.27;4.87;;;21.30;94.90;;;;;;4926416;29;20419;-71
2023/09/28 02:43:02;;;;;;;4.90;4.50;;;21.30;94.90;;;;;;4926273;29;20455;-71
2023/09/28 02:45:30;;;;;;;5.83;5.30;;;21.30;94.90;;;;;;4925669;29;20785;-71
2023/09/28 02:47:58;;;;;;;5.50;5.10;;;21.30;94.90;;;;;;4909425;29;20815;-70
2023/09/28 02:50:26;;;;;;;5.20;4.80;;;21.30;94.90;;;;;;4910172;29;21281;-71
2023/09/28 02:52:52;;;;;;;5.40;5.00;;;21.30;94.90;;;;;;4908905;29;20481;-71
2023/09/28 02:55:20;;;;;;;5.30;4.90;;;21.30;95.00;;;;;;4941189;28;20471;-71
2023/09/28 02:57:50;;;;;;;5.77;5.37;;;21.30;95.00;;;;;;4946015;28;20430;-71
2023/09/28 03:00:28;;;;;;;6.53;6.03;;;21.30;95.00;;;;;;4946898;28;20538;-71
2023/09/28 03:02:56;;;;;;;5.50;5.00;;;21.30;95.00;;;;;;4941348;29;20795;-71
2023/09/28 03:05:26;;;;;;;4.90;4.50;;;21.20;94.90;;;;;;4935817;28;20486;-71
2023/09/28 03:07:52;;;;;;;5.27;4.67;;;21.30;95.00;;;;;;4945235;29;20536;-71
2023/09/28 03:10:19;;;;;;;5.87;5.47;;;21.20;94.90;;;;;;4926818;29;20589;-71
2023/09/28 03:12:51;;;;;;;6.13;5.00;;;21.30;95.00;;;;;;4954637;28;20474;-71
2023/09/28 03:15:22;;;;;;;5.87;5.47;;;21.30;95.00;;;;;;4939994;28;20448;-70
2023/09/28 03:17:51;;;;;;;5.90;5.37;;;21.30;95.00;;;;;;4936200;28;20541;-71
2023/09/28 03:20:18;;;;;;;7.83;7.13;;;21.20;95.00;;;;;;4943176;29;20458;-71
2023/09/28 03:22:47;;;;;;;6.37;5.90;;;21.30;95.30;;;;;;4944315;28;20452;-71
2023/09/28 03:25:17;;;;;;;5.83;5.43;;;21.20;94.90;;;;;;4951367;28;20534;-71
2023/09/28 03:27:57;;;;;;;6.17;5.47;;;21.20;94.90;;;;;;4939177;29;20542;-70
2023/09/28 03:30:24;;;;;;;6.23;5.83;;;21.20;95.00;;;;;;4940556;29;20441;-71
2023/09/28 03:32:51;;;;;;;5.83;5.33;;;21.20;95.00;;;;;;4946726;28;20924;-70
2023/09/28 03:35:20;;;;;;;5.77;5.37;;;21.20;95.00;;;;;;4940926;29;20424;-71
2023/09/28 03:37:47;;;;;;;6.23;5.63;;;21.20;95.00;;;;;;4942706;29;20453;-70
2023/09/28 03:40:17;;;;;;;6.40;5.90;;;21.20;95.00;;;;;;4942073;29;20453;-71
2023/09/28 03:42:46;;;;;;;5.80;5.30;;;21.20;95.00;;;;;;4931098;29;20539;-71
2023/09/28 03:45:21;;;;;;;5.83;5.33;;;21.10;95.00;;;;;;4938944;28;20434;-70
2023/09/28 03:47:57;;;;;;;6.03;5.40;;;21.10;95.00;;;;;;4958427;28;20569;-70
2023/09/28 03:50:28;;;;;;;5.77;5.27;;;21.20;95.10;;;;;;4942431;28;20795;-71
2023/09/28 03:52:55;;;;;;;6.53;5.93;;;21.10;95.00;;;;;;4943499;29;20562;-70
2023/09/28 03:55:22;;;;;;;5.30;4.90;;;21.20;95.10;;;;;;4943596;28;20442;-71
2023/09/28 03:57:52;;;;;;;4.67;4.37;;;21.20;95.10;;;;;;4942518;29;20422;-71
2023/09/28 04:00:19;;;;;;;5.93;5.40;;;21.10;95.10;;;;;;4934069;28;20558;-70
2023/09/28 04:02:51;;;;;;;5.20;4.90;;;21.10;95.00;;;;;;4938664;28;20550;-70
2023/09/28 04:05:18;;;;;;;5.17;4.77;;;21.10;95.10;;;;;;4947005;28;20445;-70
2023/09/28 04:07:46;;;;;;;5.60;5.20;;;21.10;95.00;;;;;;4936183;29;20422;-70
2023/09/28 04:10:14;;;;;;;6.27;5.20;;;21.10;95.00;;;;;;4951275;28;20503;-71
2023/09/28 04:12:40;;;;;;;5.40;5.07;;;21.10;95.10;;;;;;4941466;28;20811;-71
2023/09/28 04:15:09;;;;;;;5.70;5.20;;;21.10;95.10;;;;;;4942585;29;20514;-71
2023/09/28 04:17:37;;;;;;;5.30;5.00;;;21.10;95.10;;;;;;4949940;28;20791;-71
2023/09/28 04:20:06;;;;;;;5.73;5.23;;;21.10;95.10;;;;;;4943401;28;20426;-71
2023/09/28 04:22:39;;;;;;;6.07;5.47;;;21.10;95.50;;;;;;4942727;28;20467;-70
2023/09/28 04:25:06;;;;;;;5.13;4.73;;;21.10;95.10;;;;;;4943358;29;20465;-71
2023/09/28 04:27:36;;;;;;;5.90;5.40;;;21.10;95.10;;;;;;4926508;29;20452;-71
2023/09/28 04:30:05;;;;;;;5.60;5.20;;;21.10;95.10;;;;;;4935307;28;20450;-71
2023/09/28 04:32:34;;;;;;;5.97;5.50;;;21.10;95.20;;;;;;4942910;28;20461;-70
2023/09/28 04:35:04;;;;;;;5.27;4.87;;;21.00;95.10;;;;;;4944802;28;20430;-70
2023/09/28 04:37:30;;;;;;;5.43;4.93;;;21.10;95.20;;;;;;4941543;29;20428;-71
2023/09/28 04:39:56;;;;;;;6.20;5.67;;;21.10;95.20;;;;;;4957870;28;20458;-70
2023/09/28 04:42:23;;;;;;;5.00;4.67;;;21.00;95.10;;;;;;4943907;28;20508;-70
2023/09/28 04:44:50;;;;;;;5.40;5.00;;;21.10;95.20;;;;;;4957971;28;20717;-71
2023/09/28 04:47:22;;;;;;;5.60;5.20;;;21.00;95.10;;;;;;4934754;29;20469;-70
2023/09/28 04:49:49;;;;;;;5.57;5.17;;;21.00;95.20;;;;;;4942670;28;20459;-71
2023/09/28 04:52:17;;;;;;;5.47;4.97;;;21.10;95.20;;;;;;4925915;29;20513;-71
2023/09/28 04:54:43;;;;;;;5.07;4.67;;;21.00;95.20;;;;;;4957596;28;20473;-70
2023/09/28 04:57:10;;;;;;;6.03;5.63;;;21.00;95.20;;;;;;4941203;29;20524;-70
2023/09/28 04:59:41;;;;;;;5.10;4.70;;;21.00;95.20;;;;;;4942614;29;20425;-70
2023/09/28 05:02:11;;;;;;;5.77;5.27;;;21.00;95.20;;;;;;4942500;28;20530;-70
2023/09/28 05:04:37;;;;;;;6.23;5.63;;;21.00;95.20;;;;;;4940646;29;20462;-70
2023/09/28 05:07:06;;;;;;;5.47;4.93;;;21.00;95.30;;;;;;4933006;29;20457;-70
2023/09/28 05:09:35;;;;;;;5.37;4.93;;;21.00;95.30;;;;;;4933161;29;20462;-71
2023/09/28 05:12:05;;;;;;;5.20;4.70;;;21.00;95.30;;;;;;4956899;28;20446;-71
2023/09/28 05:14:36;;;;;;;7.90;4.73;;;21.00;95.30;;;;;;4944642;28;20485;-70
2023/09/28 05:17:03;;;;;;;5.73;5.23;;;21.00;95.30;;;;;;4946545;28;20446;-71
2023/09/28 05:19:30;;;;;;;6.13;5.73;;;20.90;95.20;;;;;;4942830;29;20980;-70
2023/09/28 05:21:59;;;;;;;5.50;5.00;;;20.90;95.20;;;;;;4948067;28;20447;-71
2023/09/28 05:24:28;;;;;;;6.43;5.87;;;20.90;95.20;;;;;;4925886;29;20458;-71
2023/09/28 05:26:58;;;;;;;5.33;4.83;;;20.90;95.30;;;;;;4939211;29;20466;-71
2023/09/28 05:29:30;;;;;;;5.80;5.40;;;20.90;95.20;;;;;;4943856;29;20437;-70
2023/09/28 05:32:02;;;;;;;4.90;4.60;;;20.90;95.20;;;;;;4944431;28;20449;-70
2023/09/28 05:34:30;;;;;;;6.10;5.60;;;20.90;95.20;;;;;;4941764;29;20508;-70
2023/09/28 05:36:56;;;;;;;6.37;5.87;;;21.10;95.40;;;;;;4926445;29;20504;-71
2023/09/28 05:39:23;;;;;;;5.70;5.30;;;20.90;95.20;;;;;;4958892;28;20463;-70
2023/09/28 05:41:49;;;;;;;5.50;5.00;;;20.90;95.30;;;;;;4926905;29;20986;-70
2023/09/28 05:44:18;;;;;;;5.60;5.10;;;20.90;95.30;;;;;;4942439;29;20532;-70
2023/09/28 05:46:47;;;;;;;5.43;4.93;;;20.90;95.30;;;;;;4958254;28;20433;-71
2023/09/28 05:49:17;;;;;;;6.10;5.60;;;20.80;95.20;;;;;;4957746;28;20823;-70
2023/09/28 05:51:43;;;;;;;5.77;5.23;;;20.90;95.30;;;;;;4958385;28;20452;-70
2023/09/28 05:54:10;;;;;;;5.73;5.23;;;20.90;95.30;;;;;;4926138;29;20528;-71
2023/09/28 05:56:37;;;;;;;5.17;4.77;;;20.80;95.30;;;;;;4944424;28;20458;-70
2023/09/28 05:59:03;;;;;;;5.77;5.27;;;20.80;95.30;;;;;;4926574;29;20445;-70
2023/09/28 06:01:30;;;;;;;4.80;4.40;;;20.80;95.30;;;;;;4958852;28;21169;-70
2023/09/28 06:03:57;;;;;;;5.50;5.00;;;20.80;95.30;;;;;;4957747;28;20795;-70
2023/09/28 06:06:27;;;;;;;5.57;5.17;;;20.80;95.30;;;;;;4957922;28;20440;-70
2023/09/28 06:08:55;;;;;;;6.10;5.60;;;20.80;95.30;;;;;;4943490;29;20438;-70
2023/09/28 06:11:21;;;;;;;5.10;4.70;;;20.80;95.70;;;;;;4943117;28;20433;-70
2023/09/28 06:13:58;;;;;;;5.57;5.07;;;20.80;95.30;;;;;;4957895;28;20489;-70
2023/09/28 06:16:27;;;;;;;6.17;5.67;;;20.80;95.30;;;;;;4917975;29;20499;-70
2023/09/28 06:18:54;;;;;;;6.23;5.50;;;20.80;95.30;;;;;;4943383;28;20454;-70
2023/09/28 06:21:21;;;;;;;6.33;4.90;;;20.80;95.40;;;;;;4958001;28;20477;-71
2023/09/28 06:23:53;;;;;;;5.80;5.40;;;20.80;95.40;;;;;;4943160;28;20948;-70
2023/09/28 06:26:19;;;;;;;5.80;5.30;;;20.80;95.40;;;;;;4942083;29;20489;-70
2023/09/28 06:28:46;;;;;;;5.90;5.40;;;20.70;95.30;;;;;;4957868;28;21034;-71
2023/09/28 06:31:18;;;;;;;5.57;5.07;;;20.70;95.40;;;;;;4942833;28;20527;-70
2023/09/28 06:33:48;;;;;;;5.63;5.13;;;20.80;95.40;;;;;;4933962;29;20490;-70
2023/09/28 06:36:24;;;;;;;5.33;4.93;;;20.80;95.40;;;;;;4943537;28;20932;-70
2023/09/28 06:38:54;;;;;;;5.20;4.80;;;20.80;95.50;;;;;;4946881;28;20496;-70
2023/09/28 06:41:20;;;;;;;5.93;5.47;;;20.70;95.40;;;;;;4938381;29;20500;-71
2023/09/28 06:43:51;;;;;;;5.90;5.30;;;20.70;95.40;;;;;;4925900;29;20464;-70
2023/09/28 06:46:21;;;;;;;5.83;5.33;;;20.70;95.40;;;;;;4935573;29;20445;-70
2023/09/28 06:48:49;;;;;;;5.83;5.33;;;20.70;95.40;;;;;;4934205;29;20482;-70
2023/09/28 06:51:15;;;;;;;5.40;4.90;;;20.80;95.50;;;;;;4957203;28;20577;-70
2023/09/28 06:53:42;;;;;;;5.50;5.10;;;20.70;95.40;;;;;;4941928;29;21302;-70
2023/09/28 06:56:11;;;;;;;5.47;5.00;;;20.70;95.40;;;;;;4943885;28;20829;-70
2023/09/28 06:58:40;;;;;;;7.07;5.17;;;20.70;95.40;;;;;;4958273;28;20576;-71
2023/09/28 07:01:09;;;;;;;5.47;4.97;;;20.80;95.50;;;;;;4943410;28;20503;-71
2023/09/28 07:03:39;;;;;;;5.53;5.03;;;20.70;95.40;;;;;;4944080;28;20466;-71
2023/09/28 07:06:09;;;;;;;5.70;5.20;;;20.70;95.40;;;;;;4943580;28;20442;-70
2023/09/28 07:08:35;;;;;;;5.77;4.87;;;20.80;95.40;;;;;;4957900;28;20454;-70
2023/09/28 07:11:06;;;;;;;5.13;4.73;;;20.70;95.30;;;;;;4942347;29;20492;-71
2023/09/28 07:13:37;;;;;;;5.43;5.03;;;20.80;95.40;;;;;;4958273;28;20551;-70
2023/09/28 07:16:10;;;;;;;5.83;5.33;;;20.70;95.40;;;;;;4942830;28;20501;-71
2023/09/28 07:18:37;;;;;;;6.20;4.50;;;20.70;95.40;;;;;;4941911;29;20449;-71
2023/09/28 07:21:05;;;;;;;5.87;5.37;;;20.70;95.40;;;;;;4940949;28;21091;-70
2023/09/28 07:23:36;;;;;;;5.80;5.07;;;20.70;95.40;;;;;;4940962;28;20516;-70
2023/09/28 07:26:16;;;;;;;5.37;4.93;;;20.70;95.40;;;;;;4949150;28;20572;-70
2023/09/28 07:28:46;;;;;;;5.80;5.30;;;20.70;95.40;;;;;;4956575;28;20436;-70
2023/09/28 07:31:13;;;;;;;6.77;4.93;;;20.70;95.40;;;;;;4925037;29;20473;-70
2023/09/28 07:33:43;;;;;;;5.63;5.13;;;20.70;95.40;;;;;;4947259;28;20479;-70
2023/09/28 07:36:09;;;;;;;6.43;5.93;;;20.70;95.40;;;;;;4939542;28;20486;-70
2023/09/28 07:38:37;;;;;;;4.90;4.50;;;20.70;95.40;;;;;;4956234;28;20437;-70
2023/09/28 07:41:04;;;;;;;5.87;5.33;;;20.70;95.40;;;;;;4941844;28;20428;-70
2023/09/28 07:43:32;;;;;;;5.20;4.80;;;20.70;95.40;;;;;;4940401;29;20531;-70
2023/09/28 07:46:03;;;;;;;5.17;4.77;;;20.70;95.30;;;;;;4956305;28;20556;-70
2023/09/28 07:48:32;;;;;;;5.30;4.80;;;20.70;95.40;;;;;;4940404;29;20437;-71
2023/09/28 07:50:59;;;;;;;5.70;4.97;;;20.70;95.40;;;;;;4939768;29;20473;-70
2023/09/28 07:53:25;;;;;;;5.60;5.20;;;20.70;95.50;;;;;;4924219;29;20489;-71
2023/09/28 07:55:54;;;;;;;5.30;4.90;;;20.70;95.50;;;;;;4940195;29;20461;-70
2023/09/28 07:58:20;;;;;;;5.17;4.73;;;20.70;95.40;;;;;;4941689;28;20838;-70
2023/09/28 08:00:48;;;;;;;5.27;4.87;;;20.70;95.40;;;;;;4948371;28;20549;-71
2023/09/28 08:03:15;;;;;;;5.27;4.67;;;20.70;95.40;;;;;;4939767;29;20537;-70
2023/09/28 08:05:45;;;;;;;5.27;4.80;;;20.70;95.40;;;;;;4939909;29;20992;-71
2023/09/28 08:08:13;;;;;;;6.93;4.80;;;20.70;95.50;;;;;;4955723;28;20469;-70
2023/09/28 08:10:47;;;;;;;6.07;4.63;;;20.70;95.60;;;;;;4955193;28;20854;-70
2023/09/28 08:13:15;;;;;;;5.77;5.17;;;20.70;95.60;;;;;;4927911;28;20485;-70
2023/09/28 08:15:43;;;;;;;6.33;5.67;;;20.70;95.70;;;;;;4940649;28;20467;-71
2023/09/28 08:18:09;;;;;;;6.53;5.07;;;20.70;95.80;;;;;;4939999;29;20568;-70
2023/09/28 08:20:36;;;;;;;9.13;5.73;;;20.70;95.80;;;;;;4941212;28;20436;-71
2023/09/28 08:23:04;;;;;;;6.37;5.23;;;20.70;95.90;;;;;;4940024;29;20520;-71
2023/09/28 08:25:31;;;;;;;5.43;5.03;;;20.70;95.90;;;;;;4948122;28;20480;-71
2023/09/28 08:27:59;;;;;;;5.73;5.13;;;20.70;95.90;;;;;;4940757;28;20445;-70
2023/09/28 08:30:30;;;;;;;5.03;4.63;;;20.70;95.90;;;;;;4939861;29;20460;-70
2023/09/28 08:32:56;;;;;;;5.57;5.10;;;20.70;96.00;;;;;;4955589;28;20569;-70
2023/09/28 08:35:27;;;;;;;7.93;5.27;;;20.70;96.20;;;;;;4938935;29;20584;-71
2023/09/28 08:37:54;;;;;;;5.00;4.53;;;20.80;96.20;;;;;;4939171;29;20454;-70
2023/09/28 08:40:20;;;;;;;6.30;5.53;;;20.80;96.20;;;;;;4940835;28;20949;-71
2023/09/28 08:42:47;;;;;;;5.20;4.70;;;20.70;96.40;;;;;;4924532;29;20461;-70
2023/09/28 08:45:16;;;;;;;6.00;5.47;;;20.80;96.30;;;;;;4941688;29;20228;-70
2023/09/28 08:47:48;;;;;;;5.40;4.97;;;20.80;96.30;;;;;;4957851;28;21030;-70
2023/09/28 08:50:22;;;;;;;5.97;5.30;;;20.80;96.40;;;;;;4952609;28;20819;-71
2023/09/28 08:52:51;;;;;;;5.73;5.20;;;20.80;96.40;;;;;;4945278;28;20440;-70
2023/09/28 08:55:21;;;;;;;6.30;4.70;;;20.80;96.40;;;;;;4959715;28;20971;-71
2023/09/28 08:57:48;;;;;;;5.67;4.70;;;20.80;96.40;;;;;;4944113;28;20995;-71
2023/09/28 09:00:23;;;;;;;5.67;5.17;;;20.80;96.40;;;;;;4943298;29;20572;-71
2023/09/28 09:02:53;;;;;;;5.50;5.00;;;20.80;96.40;;;;;;4947517;28;20443;-70
2023/09/28 09:05:22;;;;;;;5.30;4.90;;;20.80;96.50;;;;;;4948341;28;20443;-71
2023/09/28 09:07:51;;;;;;;9.20;5.60;;;20.80;96.60;;;;;;4948535;28;20768;-70
2023/09/28 09:10:22;;;;;;;8.83;5.30;;;20.90;96.80;;;;;;4936785;29;20544;-70
2023/09/28 09:12:48;;;;;;;6.67;5.90;;;20.90;96.70;;;;;;4935614;29;20457;-70
2023/09/28 09:15:14;;;;;;;6.63;6.03;;;20.90;96.70;;;;;;4943476;29;20445;-70
2023/09/28 09:17:43;;;;;;;5.87;5.27;;;20.80;96.70;;;;;;4943278;29;20426;-70
2023/09/28 09:20:10;;;;;;;5.50;5.00;;;20.80;96.80;;;;;;4959215;28;20494;-70
2023/09/28 09:22:40;;;;;;;7.87;5.80;;;20.90;97.00;;;;;;4943425;29;20545;-70
2023/09/28 09:25:09;;;;;;;5.93;5.33;;;21.00;97.00;;;;;;4928104;29;20519;-70
2023/09/28 09:27:39;;;;;;;5.93;5.37;;;20.90;96.90;;;;;;4943152;29;20477;-71
2023/09/28 09:30:08;;;;;;;5.63;4.93;;;20.90;96.90;;;;;;4942852;29;20975;-70
2023/09/28 09:32:42;;;;;;;5.77;5.27;;;21.00;97.10;;;;;;4926853;29;20451;-70
2023/09/28 09:35:11;;;;;;;5.60;4.83;;;20.90;97.10;;;;;;5065693;23;20494;-77
2023/09/28 09:37:41;;;;;;;8.63;5.10;;;21.00;97.10;;;;;;4994850;28;20450;-76
2023/09/28 09:40:14;;;;;;;6.90;5.30;;;21.00;97.10;;;;;;4973131;28;20420;-74
2023/09/28 09:42:42;;;;;;;5.37;4.87;;;21.10;97.20;;;;;;4965197;28;20840;-73
2023/09/28 09:45:11;;;;;;;5.30;4.90;;;21.00;97.10;;;;;;4963599;28;20439;-73
2023/09/28 09:47:47;;;;;;;6.40;4.80;;;21.00;97.10;;;;;;4984456;28;20493;-75
2023/09/28 09:50:14;;;;;;;5.67;5.17;;;21.10;97.10;;;;;;4994221;28;20411;-74
2023/09/28 09:52:44;;;;;;;5.40;4.90;;;21.00;97.10;;;;;;5001530;28;20443;-75
2023/09/28 09:55:12;;;;;;;6.20;4.70;;;21.00;97.20;;;;;;4983920;28;20789;-74
2023/09/28 09:57:42;;;;;;;6.60;5.07;;;21.00;97.30;;;;;;4967834;28;20805;-75
2023/09/28 10:00:08;;;;;;;9.00;4.83;;;21.00;97.30;;;;;;4938473;28;20489;-74
2023/09/28 10:02:43;;;;;;;8.13;4.90;;;21.10;97.30;;;;;;4982516;28;20455;-72
2023/09/28 10:05:13;;;;;;;6.87;6.10;;;21.10;97.30;;;;;;4983913;28;20511;-74
2023/09/28 10:07:44;;;;;;;6.50;5.00;;;21.10;97.30;;;;;;4967720;28;20465;-75
2023/09/28 10:10:13;;;;;;;5.40;4.60;;;21.10;97.30;;;;;;5001634;28;20435;-75
2023/09/28 10:12:40;;;;;;;5.60;5.10;;;21.10;97.30;;;;;;5001376;28;20574;-74
2023/09/28 10:15:09;;;;;;;5.63;5.03;;;21.10;97.60;;;;;;4968747;28;20457;-74
2023/09/28 10:17:38;;;;;;;5.40;4.90;;;21.10;97.20;;;;;;5002935;28;20438;-76
2023/09/28 10:20:08;;;;;;;5.87;5.27;;;21.20;97.20;;;;;;5001944;28;20532;-76
2023/09/28 10:22:35;;;;;;;6.07;5.00;;;21.20;97.20;;;;;;4994203;28;21114;-76
2023/09/28 10:25:02;;;;;;;4.80;4.40;;;21.20;97.30;;;;;;4976323;28;20423;-74
2023/09/28 10:27:30;;;;;;;11.23;4.80;;;21.20;97.30;;;;;;4976898;28;20444;-74
2023/09/28 10:30:19;;;;;;;5.87;4.90;;;21.20;97.40;;;;;;4999472;28;20444;-73
2023/09/28 10:32:46;;;;;;;4.83;4.37;;;21.20;97.30;;;;;;4986003;28;20449;-74
2023/09/28 10:35:27;;;;;;;4.80;4.33;;;21.20;97.30;;;;;;4967418;28;20439;-73
2023/09/28 10:38:23;;;;;;;5.67;5.17;;;21.20;97.40;;;;;;4954826;28;21174;-74
2023/09/28 10:41:03;;;;;;;7.93;4.83;;;21.30;97.40;;;;;;4986501;28;20476;-73
2023/09/28 10:43:32;;;;;;;5.60;5.10;;;21.30;97.50;;;;;;4983113;28;21041;-74
2023/09/28 10:46:07;;;;;;;5.30;4.80;;;21.40;97.60;;;;;;4967299;28;20440;-73
2023/09/28 10:48:57;;;;;;;8.00;5.00;;;21.40;97.60;;;;;;4981341;28;20427;-74
2023/09/28 10:51:23;;;;;;;5.47;4.60;;;21.30;97.60;;;;;;4978003;28;20895;-74
2023/09/28 10:53:49;;;;;;;6.77;5.50;;;21.40;97.60;;;;;;4997910;28;20471;-75
2023/09/28 10:56:17;;;;;;;7.30;4.90;;;21.40;97.60;;;;;;4972736;28;20490;-74
2023/09/28 10:58:44;;;;;;;5.53;4.90;;;21.40;97.60;;;;;;4993499;28;21106;-74
2023/09/28 11:01:15;;;;;;;5.97;4.27;;;21.50;97.60;;;;;;4984403;28;20420;-75
2023/09/28 11:03:44;;;;;;;6.43;4.57;;;21.40;97.50;;;;;;4975936;28;20474;-74
2023/09/28 11:06:10;;;;;;;7.33;5.23;;;21.50;97.50;;;;;;4968907;28;20490;-74
2023/09/28 11:08:38;;;;;;;7.00;5.20;;;21.50;97.50;;;;;;4999040;28;20467;-74
2023/09/28 11:11:09;;;;;;;5.30;4.57;;;21.50;97.50;;;;;;4969577;28;21314;-74
2023/09/28 11:13:39;;;;;;;5.93;5.10;;;21.60;97.40;;;;;;4967770;28;20557;-74
2023/09/28 11:16:10;;;;;;;7.27;5.23;;;21.60;97.50;;;;;;4995209;28;20793;-74
2023/09/28 11:18:38;;;;;;;5.50;4.80;;;21.60;97.50;;;;;;4989709;28;21376;-70
2023/09/28 11:21:12;;;;;;;8.47;4.90;;;21.60;97.50;;;;;;4956604;28;20528;-70
2023/09/28 11:23:39;;;;;;;6.77;6.10;;;21.60;97.50;;;;;;4991838;28;20467;-70
2023/09/28 11:26:08;;;;;;;5.77;5.17;;;21.60;97.40;;;;;;4933862;28;20467;-70
2023/09/28 11:28:36;;;;;;;7.60;4.90;;;21.60;97.50;;;;;;4990116;28;21079;-70
2023/09/28 11:31:10;;;;;;;8.20;4.80;;;21.60;97.40;;;;;;4968458;28;20532;-70
2023/09/28 11:33:44;;;;;;;7.30;4.57;;;21.70;97.50;;;;;;4970321;28;20491;-70
2023/09/28 11:36:26;;;;;;;6.20;4.80;;;21.60;97.40;;;;;;4969070;28;20456;-70
2023/09/28 11:38:53;;;;;;;6.47;5.00;;;21.70;97.40;;;;;;4973876;28;20481;-70
2023/09/28 11:41:26;;;;;;;6.80;4.93;;;21.70;97.40;;;;;;4974013;28;20416;-70
2023/09/28 11:43:58;;;;;;;5.20;4.70;;;21.70;97.30;;;;;;4946552;28;20456;-70
2023/09/28 11:46:27;;;;;;;8.37;5.80;;;21.70;97.30;;;;;;4981021;28;20423;-70
2023/09/28 11:49:19;;;;;;;5.80;4.47;;;21.70;97.30;;;;;;4980430;28;20614;-70
2023/09/28 11:51:49;;;;;;;5.97;4.13;;;21.80;97.30;;;;;;4947363;28;20440;-70
2023/09/28 11:54:21;;;;;;;10.17;4.70;;;21.70;97.20;;;;;;4989103;28;20488;-71
2023/09/28 11:56:52;;;;;;;5.87;5.10;;;21.80;97.20;;;;;;4956229;28;20432;-70
2023/09/28 11:59:20;;;;;;;10.27;5.47;;;21.70;97.20;;;;;;4980845;28;20482;-71
2023/09/28 12:01:51;;;;;;;7.30;5.13;;;21.70;97.20;;;;;;4963005;28;20524;-70
2023/09/28 12:04:20;;;;;;;7.73;4.13;;;21.80;97.20;;;;;;4947082;28;20476;-70
2023/09/28 12:06:48;;;;;;;7.50;4.70;;;21.90;97.10;;;;;;4931147;28;20547;-70
2023/09/28 12:09:19;;;;;;;6.70;4.73;;;21.80;97.10;;;;;;4987385;28;21106;-70
2023/09/28 12:11:46;;;;;;;6.67;4.50;;;21.80;97.00;;;;;;4953926;28;20439;-70
2023/09/28 12:14:14;;;;;;;5.40;4.90;;;21.80;97.20;;;;;;4979942;28;20538;-70
2023/09/28 12:16:42;;;;;;;6.63;5.20;;;21.90;97.20;;;;;;4948673;28;21052;-70
2023/09/28 12:19:09;;;;;;;7.43;5.03;;;21.80;97.20;;;;;;4981362;28;20432;-70
2023/09/28 12:21:35;;;;;;;6.67;4.23;;;21.90;97.30;;;;;;4964743;28;20529;-71
2023/09/28 12:24:01;;;;;;;6.83;5.80;;;21.90;97.20;;;;;;4981384;28;20556;-71
2023/09/28 12:26:27;;;;;;;8.67;4.70;;;21.90;97.20;;;;;;4964052;28;20551;-70
2023/09/28 12:28:55;;;;;;;5.73;4.83;;;21.90;97.20;;;;;;4966184;28;20420;-70
2023/09/28 12:31:23;;;;;;;6.90;5.10;;;21.90;97.30;;;;;;4973310;28;20431;-70
2023/09/28 12:33:49;;;;;;;5.93;4.70;;;22.00;97.40;;;;;;4961636;28;20519;-70
2023/09/28 12:36:18;;;;;;;6.57;3.90;;;22.00;97.40;;;;;;4970129;28;20439;-70
2023/09/28 12:38:51;;;;;;;8.37;5.37;;;21.90;97.20;;;;;;4955756;28;20485;-70
2023/09/28 12:41:17;;;;;;;7.03;5.07;;;21.90;97.20;;;;;;4970468;28;20458;-70
2023/09/28 12:43:45;;;;;;;6.23;5.57;;;22.00;97.30;;;;;;4964975;28;21124;-70
2023/09/28 12:46:14;;;;;;;6.67;4.77;;;22.00;97.30;;;;;;4991761;28;20785;-70
2023/09/28 12:48:42;;;;;;;7.40;5.07;;;22.00;97.20;;;;;;4953854;28;20481;-71
2023/09/28 12:51:08;;;;;;;5.93;5.10;;;22.00;97.10;;;;;;4993583;28;20447;-70
2023/09/28 12:53:38;;;;;;;8.90;5.00;;;22.10;97.10;;;;;;4999370;28;20467;-70
2023/09/28 12:56:04;;;;;;;6.23;5.17;;;22.00;97.10;;;;;;4963450;28;20442;-70
2023/09/28 12:58:35;;;;;;;5.93;4.63;;;22.10;97.10;;;;;;4981269;28;20452;-70
2023/09/28 13:01:04;;;;;;;5.97;4.60;;;22.10;97.10;;;;;;4943363;28;20436;-70